Montclair, New Jersey
Current Conditions -  °F | °C
As of 3:40 PM on Sunday 21 Dec 2014 (Local Time) from KCDW Reporting Station
Overcast Overcast  
Wind Chill: 30°   Ceiling: 3400
Heat Index: 35°   Visibility: 10mi
Dew Point: 27°   Wind: 6mph
Humidity: 72%   Direction: 40°NE
Pressure: 30.3"   Gusts: NA
Location:  40.82°N, 74.22°W
Report Text: KCDW 212040Z 04005KT 10SM SCT022 OVC034 02/M03 A3030 RMK AO2 T00171028
Loading
Personal Weather Stations






























Interactive Weather Map New forecast layout! Learn more

10-Day Weather Forecast

Advertisements
Track Severe Weather on mobile